sensor_id;sensor_type;location;lat;lon;timestamp;P1;durP1;ratioP1;P2;durP2;ratioP2
3083;SDS011;1552;51.952;7.618;2023-07-24T00:00:38;4.35;;;2.53;;
3083;SDS011;1552;51.952;7.618;2023-07-24T00:03:05;5.60;;;2.45;;
3083;SDS011;1552;51.952;7.618;2023-07-24T00:05:31;4.80;;;2.42;;
3083;SDS011;1552;51.952;7.618;2023-07-24T00:07:58;7.57;;;3.53;;
3083;SDS011;1552;51.952;7.618;2023-07-24T00:10:25;4.22;;;3.10;;
3083;SDS011;1552;51.952;7.618;2023-07-24T00:12:51;3.75;;;2.90;;
3083;SDS011;1552;51.952;7.618;2023-07-24T00:15:18;4.93;;;2.50;;
3083;SDS011;1552;51.952;7.618;2023-07-24T00:17:44;3.33;;;2.67;;
3083;SDS011;1552;51.952;7.618;2023-07-24T00:20:11;3.28;;;2.67;;
3083;SDS011;1552;51.952;7.618;2023-07-24T00:22:37;4.70;;;2.78;;
3083;SDS011;1552;51.952;7.618;2023-07-24T00:25:04;3.80;;;2.78;;
3083;SDS011;1552;51.952;7.618;2023-07-24T00:27:32;5.50;;;2.83;;
3083;SDS011;1552;51.952;7.618;2023-07-24T00:29:58;6.13;;;3.08;;
3083;SDS011;1552;51.952;7.618;2023-07-24T00:32:25;4.53;;;3.50;;
3083;SDS011;1552;51.952;7.618;2023-07-24T00:34:51;4.45;;;3.40;;
3083;SDS011;1552;51.952;7.618;2023-07-24T00:37:17;3.70;;;2.47;;
3083;SDS011;1552;51.952;7.618;2023-07-24T00:39:43;3.65;;;3.35;;
3083;SDS011;1552;51.952;7.618;2023-07-24T00:42:10;4.07;;;3.00;;
3083;SDS011;1552;51.952;7.618;2023-07-24T00:44:37;3.83;;;2.65;;
3083;SDS011;1552;51.952;7.618;2023-07-24T00:47:04;4.13;;;3.05;;
3083;SDS011;1552;51.952;7.618;2023-07-24T00:49:30;5.55;;;2.55;;
3083;SDS011;1552;51.952;7.618;2023-07-24T00:51:57;4.07;;;2.55;;
3083;SDS011;1552;51.952;7.618;2023-07-24T00:54:23;3.83;;;2.42;;
3083;SDS011;1552;51.952;7.618;2023-07-24T00:56:50;2.63;;;1.80;;
3083;SDS011;1552;51.952;7.618;2023-07-24T00:59:16;3.72;;;2.30;;
3083;SDS011;1552;51.952;7.618;2023-07-24T01:01:44;6.65;;;2.15;;
3083;SDS011;1552;51.952;7.618;2023-07-24T01:04:10;3.83;;;2.50;;
3083;SDS011;1552;51.952;7.618;2023-07-24T01:06:37;2.78;;;2.20;;
3083;SDS011;1552;51.952;7.618;2023-07-24T01:09:03;4.82;;;2.90;;
3083;SDS011;1552;51.952;7.618;2023-07-24T01:11:32;7.35;;;2.30;;
3083;SDS011;1552;51.952;7.618;2023-07-24T01:14:02;4.10;;;2.40;;
3083;SDS011;1552;51.952;7.618;2023-07-24T01:16:30;2.55;;;2.30;;
3083;SDS011;1552;51.952;7.618;2023-07-24T01:19:00;7.70;;;2.33;;
3083;SDS011;1552;51.952;7.618;2023-07-24T01:21:29;4.97;;;2.38;;
3083;SDS011;1552;51.952;7.618;2023-07-24T01:23:58;2.28;;;2.03;;
3083;SDS011;1552;51.952;7.618;2023-07-24T01:26:26;2.13;;;1.85;;
3083;SDS011;1552;51.952;7.618;2023-07-24T01:28:52;2.33;;;1.85;;
3083;SDS011;1552;51.952;7.618;2023-07-24T01:31:19;3.53;;;2.38;;
3083;SDS011;1552;51.952;7.618;2023-07-24T01:33:45;2.33;;;2.05;;
3083;SDS011;1552;51.952;7.618;2023-07-24T01:36:11;2.13;;;1.92;;
3083;SDS011;1552;51.952;7.618;2023-07-24T01:38:39;2.45;;;2.25;;
3083;SDS011;1552;51.952;7.618;2023-07-24T01:41:06;3.60;;;2.65;;
3083;SDS011;1552;51.952;7.618;2023-07-24T01:43:34;3.83;;;2.25;;
3083;SDS011;1552;51.952;7.618;2023-07-24T01:46:00;4.72;;;2.58;;
3083;SDS011;1552;51.952;7.618;2023-07-24T01:48:26;2.70;;;2.42;;
3083;SDS011;1552;51.952;7.618;2023-07-24T01:50:53;3.92;;;2.28;;
3083;SDS011;1552;51.952;7.618;2023-07-24T01:53:19;3.28;;;2.00;;
3083;SDS011;1552;51.952;7.618;2023-07-24T01:55:45;2.13;;;1.92;;
3083;SDS011;1552;51.952;7.618;2023-07-24T01:58:12;2.97;;;1.67;;
3083;SDS011;1552;51.952;7.618;2023-07-24T02:00:39;3.95;;;2.15;;
3083;SDS011;1552;51.952;7.618;2023-07-24T02:03:06;3.45;;;2.42;;
3083;SDS011;1552;51.952;7.618;2023-07-24T02:05:32;3.38;;;2.70;;
3083;SDS011;1552;51.952;7.618;2023-07-24T02:07:59;3.17;;;2.63;;
3083;SDS011;1552;51.952;7.618;2023-07-24T02:10:25;5.38;;;2.58;;
3083;SDS011;1552;51.952;7.618;2023-07-24T02:12:52;3.72;;;1.95;;
3083;SDS011;1552;51.952;7.618;2023-07-24T02:15:18;4.95;;;3.03;;
3083;SDS011;1552;51.952;7.618;2023-07-24T02:17:46;4.20;;;2.20;;
3083;SDS011;1552;51.952;7.618;2023-07-24T02:20:12;4.68;;;2.72;;
3083;SDS011;1552;51.952;7.618;2023-07-24T02:22:38;3.28;;;2.97;;
3083;SDS011;1552;51.952;7.618;2023-07-24T02:25:05;3.17;;;2.47;;
3083;SDS011;1552;51.952;7.618;2023-07-24T02:27:31;3.47;;;2.50;;
3083;SDS011;1552;51.952;7.618;2023-07-24T02:29:59;5.38;;;2.38;;
3083;SDS011;1552;51.952;7.618;2023-07-24T02:32:26;4.35;;;2.15;;
3083;SDS011;1552;51.952;7.618;2023-07-24T02:34:53;4.20;;;2.08;;
3083;SDS011;1552;51.952;7.618;2023-07-24T02:37:20;4.85;;;2.55;;
3083;SDS011;1552;51.952;7.618;2023-07-24T02:39:46;3.60;;;2.42;;
3083;SDS011;1552;51.952;7.618;2023-07-24T02:42:12;2.65;;;2.20;;
3083;SDS011;1552;51.952;7.618;2023-07-24T02:44:39;8.20;;;2.28;;
3083;SDS011;1552;51.952;7.618;2023-07-24T02:47:05;2.28;;;2.03;;
3083;SDS011;1552;51.952;7.618;2023-07-24T02:49:31;7.72;;;2.45;;
3083;SDS011;1552;51.952;7.618;2023-07-24T02:51:59;3.60;;;2.33;;
3083;SDS011;1552;51.952;7.618;2023-07-24T02:54:25;4.30;;;2.33;;
3083;SDS011;1552;51.952;7.618;2023-07-24T02:56:52;4.32;;;2.53;;
3083;SDS011;1552;51.952;7.618;2023-07-24T02:59:18;2.45;;;2.13;;
3083;SDS011;1552;51.952;7.618;2023-07-24T03:01:44;3.63;;;2.13;;
3083;SDS011;1552;51.952;7.618;2023-07-24T03:04:11;3.92;;;2.47;;
3083;SDS011;1552;51.952;7.618;2023-07-24T03:06:38;2.17;;;1.77;;
3083;SDS011;1552;51.952;7.618;2023-07-24T03:09:06;4.50;;;2.38;;
3083;SDS011;1552;51.952;7.618;2023-07-24T03:11:32;6.72;;;2.55;;
3083;SDS011;1552;51.952;7.618;2023-07-24T03:13:58;2.53;;;1.88;;
3083;SDS011;1552;51.952;7.618;2023-07-24T03:16:25;6.53;;;2.10;;
3083;SDS011;1552;51.952;7.618;2023-07-24T03:18:51;4.53;;;2.40;;
3083;SDS011;1552;51.952;7.618;2023-07-24T03:21:18;2.38;;;2.17;;
3083;SDS011;1552;51.952;7.618;2023-07-24T03:23:45;3.05;;;2.38;;
3083;SDS011;1552;51.952;7.618;2023-07-24T03:26:12;3.40;;;1.73;;
3083;SDS011;1552;51.952;7.618;2023-07-24T03:28:39;3.33;;;2.45;;
3083;SDS011;1552;51.952;7.618;2023-07-24T03:31:05;2.95;;;2.00;;
3083;SDS011;1552;51.952;7.618;2023-07-24T03:33:31;3.35;;;2.10;;
3083;SDS011;1552;51.952;7.618;2023-07-24T03:35:58;8.52;;;2.85;;
3083;SDS011;1552;51.952;7.618;2023-07-24T03:38:24;2.50;;;1.70;;
3083;SDS011;1552;51.952;7.618;2023-07-24T03:40:50;8.15;;;2.95;;
3083;SDS011;1552;51.952;7.618;2023-07-24T03:43:18;2.40;;;2.20;;
3083;SDS011;1552;51.952;7.618;2023-07-24T03:45:44;2.25;;;1.95;;
3083;SDS011;1552;51.952;7.618;2023-07-24T03:48:10;4.00;;;2.03;;
3083;SDS011;1552;51.952;7.618;2023-07-24T03:50:37;5.20;;;2.20;;
3083;SDS011;1552;51.952;7.618;2023-07-24T03:53:03;3.47;;;2.03;;
3083;SDS011;1552;51.952;7.618;2023-07-24T03:55:29;3.30;;;2.38;;
3083;SDS011;1552;51.952;7.618;2023-07-24T03:57:56;5.75;;;2.85;;
3083;SDS011;1552;51.952;7.618;2023-07-24T04:00:23;3.88;;;2.63;;
3083;SDS011;1552;51.952;7.618;2023-07-24T04:02:49;5.13;;;2.45;;
3083;SDS011;1552;51.952;7.618;2023-07-24T04:05:16;4.10;;;2.60;;
3083;SDS011;1552;51.952;7.618;2023-07-24T04:07:42;5.45;;;3.03;;
3083;SDS011;1552;51.952;7.618;2023-07-24T04:10:09;3.08;;;2.55;;
3083;SDS011;1552;51.952;7.618;2023-07-24T04:12:35;4.95;;;2.28;;
3083;SDS011;1552;51.952;7.618;2023-07-24T04:15:01;3.63;;;2.22;;
3083;SDS011;1552;51.952;7.618;2023-07-24T04:17:29;4.45;;;2.33;;
3083;SDS011;1552;51.952;7.618;2023-07-24T04:19:57;4.28;;;3.25;;
3083;SDS011;1552;51.952;7.618;2023-07-24T04:22:23;6.18;;;2.67;;
3083;SDS011;1552;51.952;7.618;2023-07-24T04:24:50;4.22;;;2.70;;
3083;SDS011;1552;51.952;7.618;2023-07-24T04:27:16;3.83;;;2.65;;
3083;SDS011;1552;51.952;7.618;2023-07-24T04:29:42;5.97;;;3.30;;
3083;SDS011;1552;51.952;7.618;2023-07-24T04:32:09;5.35;;;2.95;;
3083;SDS011;1552;51.952;7.618;2023-07-24T04:34:36;8.10;;;2.80;;
3083;SDS011;1552;51.952;7.618;2023-07-24T04:37:03;7.57;;;3.17;;
3083;SDS011;1552;51.952;7.618;2023-07-24T04:39:29;6.65;;;3.88;;
3083;SDS011;1552;51.952;7.618;2023-07-24T04:41:55;7.85;;;2.67;;
3083;SDS011;1552;51.952;7.618;2023-07-24T04:44:22;4.22;;;2.45;;
3083;SDS011;1552;51.952;7.618;2023-07-24T04:46:48;4.65;;;3.38;;
3083;SDS011;1552;51.952;7.618;2023-07-24T04:49:15;2.83;;;2.53;;
3083;SDS011;1552;51.952;7.618;2023-07-24T04:51:43;4.65;;;2.78;;
3083;SDS011;1552;51.952;7.618;2023-07-24T04:54:09;8.98;;;2.90;;
3083;SDS011;1552;51.952;7.618;2023-07-24T04:56:35;4.65;;;3.67;;
3083;SDS011;1552;51.952;7.618;2023-07-24T04:59:02;3.30;;;2.33;;
3083;SDS011;1552;51.952;7.618;2023-07-24T05:01:28;5.35;;;3.03;;
3083;SDS011;1552;51.952;7.618;2023-07-24T05:03:54;9.00;;;3.15;;
3083;SDS011;1552;51.952;7.618;2023-07-24T05:06:20;4.35;;;2.80;;
3083;SDS011;1552;51.952;7.618;2023-07-24T05:08:49;3.67;;;3.15;;
3083;SDS011;1552;51.952;7.618;2023-07-24T05:11:16;7.40;;;3.92;;
3083;SDS011;1552;51.952;7.618;2023-07-24T05:13:42;6.88;;;3.08;;
3083;SDS011;1552;51.952;7.618;2023-07-24T05:16:08;3.28;;;2.90;;
3083;SDS011;1552;51.952;7.618;2023-07-24T05:18:35;3.92;;;3.10;;
3083;SDS011;1552;51.952;7.618;2023-07-24T05:21:01;4.60;;;3.05;;
3083;SDS011;1552;51.952;7.618;2023-07-24T05:23:27;5.97;;;2.95;;
3083;SDS011;1552;51.952;7.618;2023-07-24T05:25:58;3.53;;;2.92;;
3083;SDS011;1552;51.952;7.618;2023-07-24T05:28:25;3.00;;;2.25;;
3083;SDS011;1552;51.952;7.618;2023-07-24T05:30:51;4.90;;;3.70;;
3083;SDS011;1552;51.952;7.618;2023-07-24T05:33:18;4.53;;;3.28;;
3083;SDS011;1552;51.952;7.618;2023-07-24T05:35:44;4.40;;;2.17;;
3083;SDS011;1552;51.952;7.618;2023-07-24T05:38:11;3.35;;;2.67;;
3083;SDS011;1552;51.952;7.618;2023-07-24T05:40:37;4.28;;;2.38;;
3083;SDS011;1552;51.952;7.618;2023-07-24T05:43:05;2.15;;;1.90;;
3083;SDS011;1552;51.952;7.618;2023-07-24T05:45:31;2.45;;;1.70;;
3083;SDS011;1552;51.952;7.618;2023-07-24T05:47:57;4.05;;;2.78;;
3083;SDS011;1552;51.952;7.618;2023-07-24T05:50:24;8.35;;;3.53;;
3083;SDS011;1552;51.952;7.618;2023-07-24T05:52:50;3.15;;;2.05;;
3083;SDS011;1552;51.952;7.618;2023-07-24T05:55:16;3.58;;;2.42;;
3083;SDS011;1552;51.952;7.618;2023-07-24T05:57:42;5.20;;;2.70;;
3083;SDS011;1552;51.952;7.618;2023-07-24T06:00:12;3.08;;;2.78;;
3083;SDS011;1552;51.952;7.618;2023-07-24T06:02:38;2.88;;;2.53;;
3083;SDS011;1552;51.952;7.618;2023-07-24T06:05:05;4.28;;;2.65;;
3083;SDS011;1552;51.952;7.618;2023-07-24T06:07:31;3.25;;;2.40;;
3083;SDS011;1552;51.952;7.618;2023-07-24T06:09:57;2.30;;;2.10;;
3083;SDS011;1552;51.952;7.618;2023-07-24T06:12:24;4.03;;;3.10;;
3083;SDS011;1552;51.952;7.618;2023-07-24T06:14:50;8.18;;;2.95;;
3083;SDS011;1552;51.952;7.618;2023-07-24T06:17:17;3.67;;;3.00;;
3083;SDS011;1552;51.952;7.618;2023-07-24T06:19:44;4.38;;;3.25;;
3083;SDS011;1552;51.952;7.618;2023-07-24T06:22:10;4.32;;;3.35;;
3083;SDS011;1552;51.952;7.618;2023-07-24T06:24:37;5.97;;;3.13;;
3083;SDS011;1552;51.952;7.618;2023-07-24T06:27:03;5.20;;;3.65;;
3083;SDS011;1552;51.952;7.618;2023-07-24T06:29:31;3.78;;;2.92;;
3083;SDS011;1552;51.952;7.618;2023-07-24T06:31:57;5.30;;;3.72;;
3083;SDS011;1552;51.952;7.618;2023-07-24T06:34:25;3.67;;;2.78;;
3083;SDS011;1552;51.952;7.618;2023-07-24T06:36:51;7.88;;;3.47;;
3083;SDS011;1552;51.952;7.618;2023-07-24T06:39:18;7.20;;;3.72;;
3083;SDS011;1552;51.952;7.618;2023-07-24T06:41:45;6.30;;;3.75;;
3083;SDS011;1552;51.952;7.618;2023-07-24T06:44:11;4.93;;;4.22;;
3083;SDS011;1552;51.952;7.618;2023-07-24T06:46:38;5.32;;;4.03;;
3083;SDS011;1552;51.952;7.618;2023-07-24T06:49:04;5.13;;;4.38;;
3083;SDS011;1552;51.952;7.618;2023-07-24T06:51:32;5.30;;;4.00;;
3083;SDS011;1552;51.952;7.618;2023-07-24T06:53:58;4.65;;;3.15;;
3083;SDS011;1552;51.952;7.618;2023-07-24T06:56:25;6.00;;;4.03;;
3083;SDS011;1552;51.952;7.618;2023-07-24T06:58:51;4.50;;;3.90;;
3083;SDS011;1552;51.952;7.618;2023-07-24T07:01:18;4.97;;;3.67;;
3083;SDS011;1552;51.952;7.618;2023-07-24T07:03:44;5.35;;;3.53;;
3083;SDS011;1552;51.952;7.618;2023-07-24T07:06:11;6.80;;;3.15;;
3083;SDS011;1552;51.952;7.618;2023-07-24T07:08:38;3.63;;;3.28;;
3083;SDS011;1552;51.952;7.618;2023-07-24T07:11:05;4.15;;;3.75;;
3083;SDS011;1552;51.952;7.618;2023-07-24T07:13:31;5.82;;;4.50;;
3083;SDS011;1552;51.952;7.618;2023-07-24T07:15:57;5.13;;;3.70;;
3083;SDS011;1552;51.952;7.618;2023-07-24T07:18:24;6.78;;;3.42;;
3083;SDS011;1552;51.952;7.618;2023-07-24T07:20:51;8.50;;;4.30;;
3083;SDS011;1552;51.952;7.618;2023-07-24T07:23:17;3.95;;;3.47;;
3083;SDS011;1552;51.952;7.618;2023-07-24T07:25:45;7.35;;;3.75;;
3083;SDS011;1552;51.952;7.618;2023-07-24T07:28:11;8.50;;;4.20;;
3083;SDS011;1552;51.952;7.618;2023-07-24T07:30:38;4.15;;;3.20;;
3083;SDS011;1552;51.952;7.618;2023-07-24T07:33:04;9.45;;;3.97;;
3083;SDS011;1552;51.952;7.618;2023-07-24T07:35:31;7.50;;;3.85;;
3083;SDS011;1552;51.952;7.618;2023-07-24T07:37:57;8.18;;;4.60;;
3083;SDS011;1552;51.952;7.618;2023-07-24T07:40:23;4.47;;;3.47;;
3083;SDS011;1552;51.952;7.618;2023-07-24T07:42:53;8.35;;;3.28;;
3083;SDS011;1552;51.952;7.618;2023-07-24T07:45:19;4.50;;;3.75;;
3083;SDS011;1552;51.952;7.618;2023-07-24T07:47:45;5.25;;;3.95;;
3083;SDS011;1552;51.952;7.618;2023-07-24T07:50:12;5.50;;;3.83;;
3083;SDS011;1552;51.952;7.618;2023-07-24T07:52:38;7.38;;;3.97;;
3083;SDS011;1552;51.952;7.618;2023-07-24T07:55:04;5.50;;;3.55;;
3083;SDS011;1552;51.952;7.618;2023-07-24T07:57:31;5.45;;;3.65;;
3083;SDS011;1552;51.952;7.618;2023-07-24T07:59:59;7.25;;;3.17;;
3083;SDS011;1552;51.952;7.618;2023-07-24T08:02:25;3.90;;;3.40;;
3083;SDS011;1552;51.952;7.618;2023-07-24T08:04:52;5.45;;;3.03;;
3083;SDS011;1552;51.952;7.618;2023-07-24T08:07:18;5.35;;;3.90;;
3083;SDS011;1552;51.952;7.618;2023-07-24T08:09:45;3.22;;;2.50;;
3083;SDS011;1552;51.952;7.618;2023-07-24T08:12:11;1.50;;;1.40;;
3083;SDS011;1552;51.952;7.618;2023-07-24T08:14:38;1.20;;;1.10;;
3083;SDS011;1552;51.952;7.618;2023-07-24T08:17:05;1.42;;;1.23;;
3083;SDS011;1552;51.952;7.618;2023-07-24T08:19:31;1.40;;;1.27;;
3083;SDS011;1552;51.952;7.618;2023-07-24T08:21:58;1.52;;;1.17;;
3083;SDS011;1552;51.952;7.618;2023-07-24T08:24:24;2.38;;;1.42;;
3083;SDS011;1552;51.952;7.618;2023-07-24T08:26:50;0.88;;;0.88;;
3083;SDS011;1552;51.952;7.618;2023-07-24T08:29:17;1.98;;;1.20;;
3083;SDS011;1552;51.952;7.618;2023-07-24T08:31:42;1.73;;;1.30;;
3083;SDS011;1552;51.952;7.618;2023-07-24T08:34:10;2.08;;;1.20;;
3083;SDS011;1552;51.952;7.618;2023-07-24T08:36:39;2.78;;;1.42;;
3083;SDS011;1552;51.952;7.618;2023-07-24T08:39:06;2.08;;;1.45;;
3083;SDS011;1552;51.952;7.618;2023-07-24T08:41:32;1.55;;;1.15;;
3083;SDS011;1552;51.952;7.618;2023-07-24T08:43:59;1.35;;;1.17;;
3083;SDS011;1552;51.952;7.618;2023-07-24T08:46:26;2.60;;;1.90;;
3083;SDS011;1552;51.952;7.618;2023-07-24T08:48:53;1.52;;;1.42;;
3083;SDS011;1552;51.952;7.618;2023-07-24T08:51:21;2.03;;;1.63;;
3083;SDS011;1552;51.952;7.618;2023-07-24T08:53:48;1.30;;;1.20;;
3083;SDS011;1552;51.952;7.618;2023-07-24T08:56:14;1.27;;;1.17;;
3083;SDS011;1552;51.952;7.618;2023-07-24T08:58:41;1.77;;;1.17;;
3083;SDS011;1552;51.952;7.618;2023-07-24T09:01:07;2.47;;;1.35;;
3083;SDS011;1552;51.952;7.618;2023-07-24T09:03:35;2.33;;;1.23;;
3083;SDS011;1552;51.952;7.618;2023-07-24T09:06:01;1.15;;;1.08;;
3083;SDS011;1552;51.952;7.618;2023-07-24T09:08:30;1.45;;;1.02;;
3083;SDS011;1552;51.952;7.618;2023-07-24T09:10:57;1.20;;;1.10;;
3083;SDS011;1552;51.952;7.618;2023-07-24T09:13:23;2.13;;;1.25;;
3083;SDS011;1552;51.952;7.618;2023-07-24T09:15:49;1.65;;;1.10;;
3083;SDS011;1552;51.952;7.618;2023-07-24T09:18:16;3.28;;;1.42;;
3083;SDS011;1552;51.952;7.618;2023-07-24T09:20:43;1.73;;;1.52;;
3083;SDS011;1552;51.952;7.618;2023-07-24T09:23:10;1.25;;;1.15;;
3083;SDS011;1552;51.952;7.618;2023-07-24T09:25:39;1.98;;;1.10;;
3083;SDS011;1552;51.952;7.618;2023-07-24T09:28:08;1.60;;;1.13;;
3083;SDS011;1552;51.952;7.618;2023-07-24T09:30:35;1.20;;;1.10;;
3083;SDS011;1552;51.952;7.618;2023-07-24T09:33:01;0.93;;;0.88;;
3083;SDS011;1552;51.952;7.618;2023-07-24T09:35:27;1.33;;;1.20;;
3083;SDS011;1552;51.952;7.618;2023-07-24T09:38:01;0.90;;;0.90;;
3083;SDS011;1552;51.952;7.618;2023-07-24T09:40:27;1.48;;;0.95;;
3083;SDS011;1552;51.952;7.618;2023-07-24T09:42:55;0.80;;;0.80;;
3083;SDS011;1552;51.952;7.618;2023-07-24T09:45:21;0.82;;;0.82;;
3083;SDS011;1552;51.952;7.618;2023-07-24T09:47:48;1.10;;;1.10;;
3083;SDS011;1552;51.952;7.618;2023-07-24T09:50:14;1.70;;;1.20;;
3083;SDS011;1552;51.952;7.618;2023-07-24T09:52:41;1.30;;;1.20;;
3083;SDS011;1552;51.952;7.618;2023-07-24T09:55:09;3.35;;;1.63;;
3083;SDS011;1552;51.952;7.618;2023-07-24T09:57:36;1.38;;;1.27;;
3083;SDS011;1552;51.952;7.618;2023-07-24T10:00:04;1.50;;;1.27;;
3083;SDS011;1552;51.952;7.618;2023-07-24T10:02:32;6.28;;;1.70;;
3083;SDS011;1552;51.952;7.618;2023-07-24T10:04:59;2.67;;;1.15;;
3083;SDS011;1552;51.952;7.618;2023-07-24T10:07:26;1.38;;;1.27;;
3083;SDS011;1552;51.952;7.618;2023-07-24T10:09:53;2.80;;;1.88;;
3083;SDS011;1552;51.952;7.618;2023-07-24T10:12:21;1.58;;;1.30;;
3083;SDS011;1552;51.952;7.618;2023-07-24T10:14:48;2.20;;;1.25;;
3083;SDS011;1552;51.952;7.618;2023-07-24T10:17:20;4.05;;;1.55;;
3083;SDS011;1552;51.952;7.618;2023-07-24T10:19:50;3.00;;;1.92;;
3083;SDS011;1552;51.952;7.618;2023-07-24T10:22:16;1.52;;;1.42;;
3083;SDS011;1552;51.952;7.618;2023-07-24T10:24:44;2.47;;;1.63;;
3083;SDS011;1552;51.952;7.618;2023-07-24T10:27:10;1.02;;;0.85;;
3083;SDS011;1552;51.952;7.618;2023-07-24T10:29:37;2.40;;;1.38;;
3083;SDS011;1552;51.952;7.618;2023-07-24T10:32:04;6.25;;;1.52;;
3083;SDS011;1552;51.952;7.618;2023-07-24T10:34:38;1.98;;;1.73;;
3083;SDS011;1552;51.952;7.618;2023-07-24T10:37:07;2.25;;;1.58;;
3083;SDS011;1552;51.952;7.618;2023-07-24T10:39:37;2.85;;;2.28;;
3083;SDS011;1552;51.952;7.618;2023-07-24T10:42:04;1.83;;;1.58;;
3083;SDS011;1552;51.952;7.618;2023-07-24T10:44:31;1.33;;;1.20;;
3083;SDS011;1552;51.952;7.618;2023-07-24T10:46:57;2.05;;;1.48;;
3083;SDS011;1552;51.952;7.618;2023-07-24T10:49:23;2.25;;;1.77;;
3083;SDS011;1552;51.952;7.618;2023-07-24T10:51:55;1.92;;;1.73;;
3083;SDS011;1552;51.952;7.618;2023-07-24T10:54:22;2.20;;;1.85;;
3083;SDS011;1552;51.952;7.618;2023-07-24T10:56:48;2.72;;;1.88;;
3083;SDS011;1552;51.952;7.618;2023-07-24T10:59:14;2.47;;;1.38;;
3083;SDS011;1552;51.952;7.618;2023-07-24T11:01:41;1.95;;;1.30;;
3083;SDS011;1552;51.952;7.618;2023-07-24T11:04:07;1.58;;;1.40;;
3083;SDS011;1552;51.952;7.618;2023-07-24T11:06:37;4.72;;;2.05;;
3083;SDS011;1552;51.952;7.618;2023-07-24T11:09:05;1.25;;;1.20;;
3083;SDS011;1552;51.952;7.618;2023-07-24T11:11:31;4.10;;;1.65;;
3083;SDS011;1552;51.952;7.618;2023-07-24T11:13:58;2.40;;;1.73;;
3083;SDS011;1552;51.952;7.618;2023-07-24T11:16:25;1.40;;;1.30;;
3083;SDS011;1552;51.952;7.618;2023-07-24T11:18:51;2.70;;;1.88;;
3083;SDS011;1552;51.952;7.618;2023-07-24T11:21:18;1.80;;;1.45;;
3083;SDS011;1552;51.952;7.618;2023-07-24T11:23:45;2.50;;;1.45;;
3083;SDS011;1552;51.952;7.618;2023-07-24T11:26:12;1.35;;;1.25;;
3083;SDS011;1552;51.952;7.618;2023-07-24T11:28:40;2.67;;;1.70;;
3083;SDS011;1552;51.952;7.618;2023-07-24T11:31:06;1.80;;;1.58;;
3083;SDS011;1552;51.952;7.618;2023-07-24T11:33:33;1.92;;;1.10;;
3083;SDS011;1552;51.952;7.618;2023-07-24T11:35:59;2.45;;;1.70;;
3083;SDS011;1552;51.952;7.618;2023-07-24T11:38:26;2.65;;;1.63;;
3083;SDS011;1552;51.952;7.618;2023-07-24T11:40:53;1.17;;;1.02;;
3083;SDS011;1552;51.952;7.618;2023-07-24T11:43:22;2.03;;;1.38;;
3083;SDS011;1552;51.952;7.618;2023-07-24T11:45:48;1.13;;;1.02;;
3083;SDS011;1552;51.952;7.618;2023-07-24T11:48:17;1.52;;;1.42;;
3083;SDS011;1552;51.952;7.618;2023-07-24T11:50:44;1.58;;;1.30;;
3083;SDS011;1552;51.952;7.618;2023-07-24T11:53:18;1.27;;;1.23;;
3083;SDS011;1552;51.952;7.618;2023-07-24T11:55:45;2.65;;;1.35;;
3083;SDS011;1552;51.952;7.618;2023-07-24T11:58:13;2.42;;;1.17;;
3083;SDS011;1552;51.952;7.618;2023-07-24T12:00:42;1.98;;;0.88;;
3083;SDS011;1552;51.952;7.618;2023-07-24T12:03:08;1.55;;;1.25;;
3083;SDS011;1552;51.952;7.618;2023-07-24T12:05:37;1.27;;;1.05;;
3083;SDS011;1552;51.952;7.618;2023-07-24T12:08:04;1.35;;;1.00;;
3083;SDS011;1552;51.952;7.618;2023-07-24T12:10:30;1.23;;;1.13;;
3083;SDS011;1552;51.952;7.618;2023-07-24T12:12:58;1.23;;;1.13;;
3083;SDS011;1552;51.952;7.618;2023-07-24T12:15:24;1.50;;;1.40;;
3083;SDS011;1552;51.952;7.618;2023-07-24T12:17:52;2.58;;;1.70;;
3083;SDS011;1552;51.952;7.618;2023-07-24T12:20:19;1.95;;;1.20;;
3083;SDS011;1552;51.952;7.618;2023-07-24T12:22:45;2.40;;;2.13;;
3083;SDS011;1552;51.952;7.618;2023-07-24T12:25:12;1.50;;;1.35;;
3083;SDS011;1552;51.952;7.618;2023-07-24T12:27:38;0.98;;;0.98;;
3083;SDS011;1552;51.952;7.618;2023-07-24T12:30:06;3.00;;;1.50;;
3083;SDS011;1552;51.952;7.618;2023-07-24T12:32:33;1.63;;;1.38;;
3083;SDS011;1552;51.952;7.618;2023-07-24T12:35:01;2.22;;;1.55;;
3083;SDS011;1552;51.952;7.618;2023-07-24T12:37:27;1.73;;;1.63;;
3083;SDS011;1552;51.952;7.618;2023-07-24T12:39:54;3.00;;;1.83;;
3083;SDS011;1552;51.952;7.618;2023-07-24T12:42:20;2.20;;;2.00;;
3083;SDS011;1552;51.952;7.618;2023-07-24T12:44:47;2.88;;;1.83;;
3083;SDS011;1552;51.952;7.618;2023-07-24T12:47:13;2.58;;;1.85;;
3083;SDS011;1552;51.952;7.618;2023-07-24T12:49:39;1.85;;;1.67;;
3083;SDS011;1552;51.952;7.618;2023-07-24T12:52:07;3.75;;;2.28;;
3083;SDS011;1552;51.952;7.618;2023-07-24T12:54:34;3.00;;;2.55;;
3083;SDS011;1552;51.952;7.618;2023-07-24T12:57:00;5.22;;;2.38;;
3083;SDS011;1552;51.952;7.618;2023-07-24T12:59:26;3.42;;;2.40;;
3083;SDS011;1552;51.952;7.618;2023-07-24T13:01:53;2.67;;;1.75;;
3083;SDS011;1552;51.952;7.618;2023-07-24T13:04:19;1.42;;;1.33;;
3083;SDS011;1552;51.952;7.618;2023-07-24T13:06:46;1.50;;;1.40;;
3083;SDS011;1552;51.952;7.618;2023-07-24T13:09:13;1.65;;;1.50;;
3083;SDS011;1552;51.952;7.618;2023-07-24T13:11:40;1.33;;;1.20;;
3083;SDS011;1552;51.952;7.618;2023-07-24T13:14:06;1.13;;;0.90;;
3083;SDS011;1552;51.952;7.618;2023-07-24T13:16:32;1.02;;;0.90;;
3083;SDS011;1552;51.952;7.618;2023-07-24T13:18:59;2.28;;;1.08;;
3083;SDS011;1552;51.952;7.618;2023-07-24T13:21:25;2.25;;;1.17;;
3083;SDS011;1552;51.952;7.618;2023-07-24T13:23:51;1.77;;;1.10;;
3083;SDS011;1552;51.952;7.618;2023-07-24T13:26:19;1.45;;;1.30;;
3083;SDS011;1552;51.952;7.618;2023-07-24T13:28:45;1.73;;;1.10;;
3083;SDS011;1552;51.952;7.618;2023-07-24T13:31:12;1.42;;;1.33;;
3083;SDS011;1552;51.952;7.618;2023-07-24T13:33:39;1.15;;;1.13;;
3083;SDS011;1552;51.952;7.618;2023-07-24T13:36:05;1.35;;;1.23;;
3083;SDS011;1552;51.952;7.618;2023-07-24T13:38:31;1.35;;;1.17;;
3083;SDS011;1552;51.952;7.618;2023-07-24T13:40:58;1.77;;;1.02;;
3083;SDS011;1552;51.952;7.618;2023-07-24T13:43:26;2.90;;;1.40;;
3083;SDS011;1552;51.952;7.618;2023-07-24T13:45:52;1.40;;;1.30;;
3083;SDS011;1552;51.952;7.618;2023-07-24T13:48:19;1.38;;;1.10;;
3083;SDS011;1552;51.952;7.618;2023-07-24T13:50:45;1.42;;;1.33;;
3083;SDS011;1552;51.952;7.618;2023-07-24T13:53:11;1.60;;;1.40;;
3083;SDS011;1552;51.952;7.618;2023-07-24T13:55:38;1.70;;;1.45;;
3083;SDS011;1552;51.952;7.618;2023-07-24T13:58:04;1.65;;;1.48;;
3083;SDS011;1552;51.952;7.618;2023-07-24T14:00:32;1.58;;;1.48;;
3083;SDS011;1552;51.952;7.618;2023-07-24T14:02:58;1.40;;;1.30;;
3083;SDS011;1552;51.952;7.618;2023-07-24T14:05:24;1.55;;;1.45;;
3083;SDS011;1552;51.952;7.618;2023-07-24T14:07:51;1.90;;;1.73;;
3083;SDS011;1552;51.952;7.618;2023-07-24T14:10:17;3.30;;;2.17;;
3083;SDS011;1552;51.952;7.618;2023-07-24T14:12:44;2.20;;;2.00;;
3083;SDS011;1552;51.952;7.618;2023-07-24T14:15:10;1.73;;;1.60;;
3083;SDS011;1552;51.952;7.618;2023-07-24T14:17:37;2.15;;;1.80;;
3083;SDS011;1552;51.952;7.618;2023-07-24T14:20:04;2.63;;;2.08;;
3083;SDS011;1552;51.952;7.618;2023-07-24T14:22:31;3.33;;;2.38;;
3083;SDS011;1552;51.952;7.618;2023-07-24T14:24:57;2.25;;;1.90;;
3083;SDS011;1552;51.952;7.618;2023-07-24T14:27:23;2.03;;;1.80;;
3083;SDS011;1552;51.952;7.618;2023-07-24T14:29:50;5.35;;;2.22;;
3083;SDS011;1552;51.952;7.618;2023-07-24T14:32:16;2.13;;;1.92;;
3083;SDS011;1552;51.952;7.618;2023-07-24T14:34:44;3.72;;;2.30;;
3083;SDS011;1552;51.952;7.618;2023-07-24T14:37:10;1.73;;;1.60;;
3083;SDS011;1552;51.952;7.618;2023-07-24T14:39:36;1.88;;;1.75;;
3083;SDS011;1552;51.952;7.618;2023-07-24T14:42:03;2.05;;;1.67;;
3083;SDS011;1552;51.952;7.618;2023-07-24T14:44:29;2.58;;;2.00;;
3083;SDS011;1552;51.952;7.618;2023-07-24T14:46:55;4.05;;;1.80;;
3083;SDS011;1552;51.952;7.618;2023-07-24T14:49:22;1.83;;;1.40;;
3083;SDS011;1552;51.952;7.618;2023-07-24T14:51:49;2.30;;;1.65;;
3083;SDS011;1552;51.952;7.618;2023-07-24T14:54:16;5.05;;;1.70;;
3083;SDS011;1552;51.952;7.618;2023-07-24T14:56:42;2.92;;;1.63;;
3083;SDS011;1552;51.952;7.618;2023-07-24T14:59:08;2.40;;;1.80;;
3083;SDS011;1552;51.952;7.618;2023-07-24T15:01:34;1.67;;;1.52;;
3083;SDS011;1552;51.952;7.618;2023-07-24T15:04:01;1.85;;;1.52;;
3083;SDS011;1552;51.952;7.618;2023-07-24T15:06:27;3.92;;;2.00;;
3083;SDS011;1552;51.952;7.618;2023-07-24T15:08:56;1.52;;;1.27;;
3083;SDS011;1552;51.952;7.618;2023-07-24T15:11:23;3.25;;;1.80;;